Monday, June 27, 2016
04:00 UTC
  |  Log In   |  Register Free
Airport Search:

Carmi Municipal Airport
(KCUL)

Carmi Municipal Airport Diagram
No Airport Diagram Available

FAA data valid effective May 26 2016 - Jul 21 2016 (unless otherwise noted).

 
 
 
 
 
 
 
 
 
 
 
 
 
 
Current Aviation Weather for KCUL

Weather Summary


The most recent METAR observation for CUL was updated at: 12:55 UTC
METAR for KCUL is not available. Closest METAR is for KFWC
KCUL  (most recent observation was updatred at 27:03 UTC)
270336Z AUTO 00000KT 10SM -VCTSRA SCT006 SCT018 SCT024 23/22 A3007 RMK AO2 LTG DSNT ALQS P0045

KFWC  (22.1 nm SE)   (most recent observation was updated at 27:03 UTC)
270335Z AUTO 00000KT 10SM BKN065 BKN100 26/22 A3006 RMK AO1 LTG DSNT E AND SE T02560223

KHSB  (26.2 nm NE)   (most recent observation was updated at 27:03 UTC)
270355Z AUTO 10SM 27/23 A3006 RMK AO2 LTG DSNT N AND E T02690227

TAF for KCUL is not available.
KEVV  (28.1 nm NW)   (most recent observation was updatred at 27:02 UTC)
AMD 270202Z 2702/2724 24006KT P6SM VCTS SCT050CB BKN100 TEMPO 2703/2707 2SM -TSRA BR BKN025CB FM271200 02005KT P6SM SCT050


GlobalAir.com is loading additional information.
 Current Weather at CUL
79.0 F° (25.9 C°)

North winds at 11.5 mph
Pressure:
30.05 in
Humidity:
81%
Wind:
North at 11.5 mph
Dew Point:
72.3 F° (22.4 C°)
Visibility:
10.00 mi
CUL NOAA Radar




Find All Airport Services Find A Hotel Find A Rental Car Find A Golf Course Find A Restaurant $100 Hamburger



Airport Weather Forecast for KCUL

Translated METAR for KCUL (0336 UTC)
METAR:
KCUL 270336Z AUTO 00000KT 10SM -VCTSRA SCT006 SCT018 SCT024 23/22 A3007 RMK AO2 LTG DSNT ALQS P0045
Conditions at:
KCUL (Carmi Muni, IL) observed 0336 UTC 27 June 2016
Temperature:
23°C (73.4°F)
Dewpoint:
22°C (71.6°F) [RH = 94.1]
Pressure:
30.07 inches Hg (1018.3 mb)
Winds:
from the N (000 degrees) at 0 mph (0 knots: 0 m/s)
Visibility:
10 mile(s)
Ceiling:
at least 12,000 feet AGL
Clouds:
Scattered Clouds at 600 feet AGL
Scattered Clouds at 1,800 feet AGL
Scattered Clouds at 2,400 feet AGL
Remarks:
site is un-manned
site is automated and HAS a precipitation sensor

Translated TAF for KEVV (Evansville Rgnl, IN) (0202 UTC)
TAF text:
KEVV 270202Z 2702/2724 24006KT P6SM VCTS SCT050CB BKN100
Forecast period:
Monday Jun 27 2016 02:00 UTC - Monday Jun 27 2016 24:00 UTC
Forecast type:
FROM: standard forecast or significant change
Winds:
from the WSW (240 degrees) at 6.9 mph (6 knots: 3.1 m/s)
Visibility:
6 or more mile(s) (9.7+ km)
Ceiling:
10,000 feet AGL
Clouds:
Broken Cloud Cover at 10,000 feet AGL
Weather:
Moderate In Vicinity Thunderstorm
TAF text:
2703/2707 2SM -TSRA BR BKN025CB
Forecast period:
Tuesday Jun 28 2016 03:00 UTC - Tuesday Jun 28 2016 07:00 UTC
Forecast type:
FROM: standard forecast or significant change
Winds:
Visibility:
2 mile(s) (3.2 km)
Ceiling:
Clouds:
Weather:
Light Thunderstorm Rain
TAF text:
FM271200 02005KT P6SM SCT050
Forecast period:
Monday Jun 27 2016 12:00 UTC - Monday Jun 27 2016 24:00 UTC
Forecast type:
FROM: standard forecast or significant change
Winds:
from the NNE (020 degrees) at 5.8 mph (5 knots: 2.6 m/s)
Visibility:
6 or more mile(s) (9.7+ km)
Ceiling:
at least 12,000 feet AGL
Clouds:
Scattered Clouds at 5,000 feet AGL
Weather:
no significant weather observed at this time
FBO's on the Field
FBO Company Facility Photos Services Transportation Aviation Fuel Prices: Prices include tax
Catering Weather Repair Courtesy Rental Type 100LL JetA JetA+ MOGAS 8087
 
Carmi Municipal Airport

This FBO has not yet been rated
FS:Shell
Last Updated: May-20
Login to update fuel prices
SS:
Contact Carmi Municipal AirportMore FBO Information
 
Add another FBO Facility Photos Catering Weather Repair Courtesy Rental Type 100LL JetA JetA+ MOGAS 8087
Services Transportation Aviation Fuel Prices: Prices include tax


model-print
model-print
model-print
model-print